createdAt,value
2023-02-26T14:57:52.963Z,10.80
2023-02-26T15:00:36.999Z,10.70
2023-02-26T15:16:23.857Z,8.10
2023-02-26T15:19:17.359Z,8.80
2023-02-26T15:22:07.941Z,8.50
2023-02-26T15:27:36.893Z,8.90
2023-02-26T15:30:16.206Z,9.10
2023-02-26T15:32:53.708Z,11.30
2023-02-26T15:43:32.120Z,11.40
2023-02-26T15:46:05.323Z,12.70
2023-02-26T15:48:42.515Z,12.80
2023-02-26T15:51:15.087Z,11.30
2023-02-26T15:53:47.784Z,10.70
2023-02-26T15:56:22.221Z,9.80
2023-02-26T15:58:54.715Z,11.50
2023-02-26T16:01:25.423Z,11.40
2023-02-26T16:03:57.929Z,9.90
2023-02-26T16:06:37.870Z,10.00
2023-02-26T16:09:09.413Z,10.10
2023-02-26T16:11:40.420Z,10.30
2023-02-26T16:14:22.257Z,10.90
2023-02-26T16:16:54.056Z,10.50
2023-02-26T16:19:39.185Z,12.30
2023-02-26T16:22:24.425Z,10.40
2023-02-26T16:25:00.674Z,11.20
2023-02-26T16:27:51.391Z,14.20
2023-02-26T16:30:23.281Z,12.20
2023-02-26T16:32:54.092Z,15.30
2023-02-26T16:35:24.680Z,13.70
2023-02-26T16:37:55.330Z,13.00
2023-02-26T16:40:25.537Z,14.00
2023-02-26T16:43:07.541Z,12.80
2023-02-26T16:45:52.281Z,12.50
2023-02-26T16:49:01.089Z,14.30
2023-02-26T16:51:41.817Z,13.90
2023-02-26T16:57:28.977Z,15.90
2023-02-26T17:00:17.916Z,16.50
2023-02-26T17:02:49.886Z,15.00
2023-02-26T17:08:38.686Z,13.70
2023-02-26T17:14:24.291Z,12.90
2023-02-26T17:16:58.185Z,12.50
2023-02-26T17:19:39.816Z,12.30
2023-02-26T17:22:15.020Z,13.60
2023-02-26T17:24:49.467Z,14.80
2023-02-26T17:27:29.897Z,14.00
2023-02-26T17:30:00.209Z,15.10
2023-02-26T17:32:31.927Z,12.80
2023-02-26T17:35:08.831Z,13.40
2023-02-26T17:40:25.964Z,13.80
2023-02-26T17:42:57.610Z,13.30
2023-02-26T17:45:30.475Z,16.90
2023-02-26T17:48:04.826Z,12.70
2023-02-26T17:50:49.591Z,12.30
2023-02-26T17:53:27.673Z,13.10
2023-02-26T17:55:58.214Z,12.90
2023-02-26T17:58:34.238Z,11.30
2023-02-26T18:01:04.280Z,12.40
2023-02-26T18:03:33.227Z,13.10
2023-02-26T18:06:01.765Z,12.30
2023-02-26T18:08:34.508Z,12.10
2023-02-26T18:11:06.666Z,12.50
2023-02-26T18:13:37.130Z,12.10
2023-02-26T18:16:12.963Z,13.00
2023-02-26T18:18:47.568Z,11.50
2023-02-26T18:21:17.187Z,12.90
2023-02-26T18:23:49.242Z,13.40
2023-02-26T18:26:23.121Z,13.20
2023-02-26T18:28:57.550Z,13.70
2023-02-26T18:31:35.008Z,14.60
2023-02-26T18:34:13.885Z,18.90
2023-02-26T18:36:45.500Z,22.50
2023-02-26T18:39:20.634Z,25.40
2023-02-26T18:41:50.120Z,25.00
2023-02-26T18:44:20.342Z,24.00
2023-02-26T18:46:51.109Z,25.70
2023-02-26T18:49:20.249Z,25.20
2023-02-26T18:51:50.366Z,25.00
2023-02-26T18:54:20.050Z,26.50
2023-02-26T18:56:50.108Z,29.30
2023-02-26T18:59:19.726Z,25.50
2023-02-26T19:01:52.019Z,24.50
2023-02-26T19:04:26.480Z,24.90
2023-02-26T19:06:56.634Z,26.10
2023-02-26T19:09:29.549Z,22.60
2023-02-26T19:11:59.320Z,22.90
2023-02-26T19:14:32.623Z,23.50
2023-02-26T19:17:01.550Z,22.50
2023-02-26T19:22:03.284Z,20.90
2023-02-26T19:24:38.356Z,19.40
2023-02-26T19:29:37.343Z,17.50
2023-02-26T19:32:07.182Z,15.70
2023-02-26T19:34:36.207Z,17.00
2023-02-26T19:37:10.797Z,16.70
2023-02-26T19:39:39.867Z,16.90
2023-02-26T19:42:11.906Z,16.50
2023-02-26T19:44:44.769Z,18.60
2023-02-26T19:47:14.691Z,18.20
2023-02-26T19:49:44.730Z,18.60
2023-02-26T19:52:20.211Z,18.20
2023-02-26T19:54:51.433Z,16.40
2023-02-26T19:57:22.484Z,18.20
2023-02-26T19:59:55.284Z,19.20
2023-02-26T20:02:32.472Z,17.10
2023-02-26T20:05:17.175Z,16.00
2023-02-26T20:07:50.126Z,15.30
2023-02-26T20:10:26.474Z,14.50
2023-02-26T20:13:00.282Z,15.00
2023-02-26T20:15:31.550Z,14.10
2023-02-26T20:18:05.691Z,14.20
2023-02-26T20:20:43.936Z,12.80
2023-02-26T20:23:15.999Z,11.70
2023-02-26T20:25:45.384Z,11.80
2023-02-26T20:28:20.056Z,12.70
2023-02-26T20:30:50.876Z,13.20
2023-02-26T20:33:21.420Z,11.60
2023-02-26T20:35:50.253Z,13.30
2023-02-26T20:38:19.509Z,12.10
2023-02-26T20:40:48.547Z,12.80
2023-02-26T20:43:20.219Z,11.30
2023-02-26T20:45:49.875Z,11.20
2023-02-26T20:48:24.802Z,12.30
2023-02-26T20:51:02.065Z,10.90
2023-02-26T20:53:31.570Z,10.90
2023-02-26T20:56:00.999Z,10.00
2023-02-26T20:58:30.202Z,12.30
2023-02-26T21:00:58.576Z,10.80
2023-02-26T21:03:31.919Z,11.10
2023-02-26T21:06:03.737Z,9.70
2023-02-26T21:11:26.145Z,10.30
2023-02-26T21:13:55.488Z,10.40
2023-02-26T21:16:25.861Z,10.30
2023-02-26T21:18:56.836Z,10.20
2023-02-26T21:21:27.832Z,11.20
2023-02-26T21:23:57.653Z,10.40
2023-02-26T21:26:28.336Z,9.20
2023-02-26T21:28:57.078Z,9.60
2023-02-26T21:31:28.902Z,8.80
2023-02-26T21:34:30.277Z,8.50
2023-02-26T21:36:59.679Z,8.60
2023-02-26T21:39:33.391Z,9.20
2023-02-26T21:42:04.547Z,7.50
2023-02-26T21:44:35.685Z,7.10
2023-02-26T21:47:05.595Z,9.40
2023-02-26T21:52:43.607Z,6.70
2023-02-26T21:55:14.233Z,5.40
2023-02-26T21:57:43.668Z,6.20
2023-02-26T22:00:13.526Z,5.70
2023-02-26T22:02:47.580Z,5.90
2023-02-26T22:05:16.782Z,5.00
2023-02-26T22:07:52.648Z,5.20
2023-02-26T22:10:24.905Z,5.60
2023-02-26T22:12:53.949Z,5.70
2023-02-26T22:15:31.777Z,5.20
2023-02-26T22:18:06.821Z,5.30
2023-02-26T22:20:39.434Z,4.90
2023-02-26T22:23:32.141Z,5.10
2023-02-26T22:26:07.221Z,4.30
2023-02-26T22:28:42.180Z,4.30
2023-02-26T22:31:17.128Z,4.20
2023-02-26T22:33:47.770Z,4.40
2023-02-26T22:36:17.913Z,5.00
2023-02-26T22:39:05.258Z,5.20
2023-02-26T22:41:38.882Z,4.40
2023-02-26T22:44:07.994Z,4.50
2023-02-26T22:46:39.544Z,4.80
2023-02-26T22:49:09.812Z,4.60
2023-02-26T22:51:44.217Z,5.10
2023-02-26T22:54:13.618Z,4.50
2023-02-26T22:56:45.591Z,5.20
2023-02-26T22:59:16.868Z,4.60
2023-02-26T23:01:46.829Z,4.70
2023-02-26T23:04:17.602Z,4.40
2023-02-26T23:06:50.071Z,4.70
2023-02-26T23:09:19.074Z,4.80
2023-02-26T23:11:49.136Z,5.40
2023-02-26T23:14:24.472Z,4.50
2023-02-26T23:16:53.161Z,4.80
2023-02-26T23:19:22.935Z,4.80
2023-02-26T23:21:51.858Z,5.40
2023-02-26T23:24:23.847Z,5.40
2023-02-26T23:27:03.438Z,5.50
2023-02-26T23:29:35.788Z,5.40
2023-02-26T23:32:06.692Z,5.40
2023-02-26T23:34:40.412Z,5.30
2023-02-26T23:37:10.360Z,5.40
2023-02-26T23:39:42.525Z,5.20
2023-02-26T23:42:10.879Z,5.90
2023-02-26T23:44:39.207Z,6.10
2023-02-26T23:47:07.793Z,6.30
2023-02-26T23:52:08.892Z,5.70
2023-02-26T23:54:39.847Z,6.50
2023-02-26T23:57:08.525Z,6.10
2023-02-26T23:59:37.207Z,5.60
